Time;durP1;ratioP1;P1;durP2;ratioP2;P2;SDS_P1;SDS_P2;PMS_P1;PMS_P2;Temp;Humidity;BMP_temperature;BMP_pressure;BME280_temperature;BME280_humidity;BME280_pressure;Samples;Min_cycle;Max_cycle;Signal;HPM_P1;HPM_P2
2022/05/03 00:00:51;;;;;;;;;8.80;6.80;;;;;17.06;35.20;99132.84;4986352;28;9013;-76
2022/05/03 00:03:25;;;;;;;;;6.40;6.40;;;;;17.04;35.40;99134.66;5018037;28;9009;-74
2022/05/03 00:06:02;;;;;;;;;8.40;7.60;;;;;16.99;35.45;99133.94;5069793;28;8840;-75
2022/05/03 00:08:39;;;;;;;;;7.40;6.00;;;;;16.97;35.83;99133.16;5053728;28;8990;-76
2022/05/03 00:11:11;;;;;;;;;6.40;5.40;;;;;16.94;36.19;99137.59;5056778;28;8859;-75
2022/05/03 00:13:46;;;;;;;;;6.00;6.00;;;;;16.91;36.21;99137.69;5071412;28;9735;-76
2022/05/03 00:16:17;;;;;;;;;7.40;6.60;;;;;16.92;35.88;99134.16;5053274;28;9586;-75
2022/05/03 00:18:45;;;;;;;;;7.00;7.00;;;;;16.95;35.91;99130.56;5070095;28;8860;-74
2022/05/03 00:21:15;;;;;;;;;7.60;6.40;;;;;16.97;35.86;99138.41;5033001;28;9001;-77
2022/05/03 00:23:46;;;;;;;;;6.80;6.80;;;;;16.92;36.14;99134.16;5051026;28;8869;-78
2022/05/03 00:26:15;;;;;;;;;7.80;6.60;;;;;16.92;36.12;99131.53;5032991;28;9811;-75
2022/05/03 00:28:46;;;;;;;;;8.20;7.80;;;;;16.91;36.29;99129.78;4999951;28;8842;-73
2022/05/03 00:31:15;;;;;;;;;7.80;7.00;;;;;16.90;36.15;99132.47;5049080;28;8855;-75
2022/05/03 00:33:44;;;;;;;;;7.80;7.80;;;;;16.87;36.23;99127.31;5050656;28;8854;-75
2022/05/03 00:36:13;;;;;;;;;6.00;6.00;;;;;16.85;36.35;99130.00;5050278;28;9747;-76
2022/05/03 00:38:42;;;;;;;;;8.80;8.20;;;;;16.83;36.49;99128.34;5065684;28;8845;-74
2022/05/03 00:41:15;;;;;;;;;7.00;7.00;;;;;16.84;36.43;99122.16;5066043;28;8855;-76
2022/05/03 00:43:54;;;;;;;;;4.00;4.00;;;;;16.82;36.80;99121.31;5032408;28;8865;-75
2022/05/03 00:46:28;;;;;;;;;8.20;8.20;;;;;16.87;36.82;99122.06;5032363;28;8839;-76
2022/05/03 00:49:16;;;;;;;;;7.00;7.00;;;;;16.83;36.80;99125.72;4999232;28;8839;-77
2022/05/03 00:51:50;;;;;;;;;7.60;6.80;;;;;16.80;36.73;99123.97;5050345;28;8896;-77
2022/05/03 00:54:28;;;;;;;;;7.00;7.00;;;;;16.82;36.83;99119.56;5064417;28;8873;-77
2022/05/03 00:57:12;;;;;;;;;6.60;6.20;;;;;16.74;37.34;99119.78;5030811;28;8940;-74
2022/05/03 01:00:05;;;;;;;;;6.40;6.20;;;;;16.75;37.30;99125.94;5030886;28;8844;-76
2022/05/03 01:02:53;;;;;;;;;7.60;7.00;;;;;16.65;37.57;99116.59;5047395;28;8867;-77
2022/05/03 01:05:28;;;;;;;;;8.00;8.00;;;;;16.65;37.73;99122.72;5030459;28;8827;-75
2022/05/03 01:08:05;;;;;;;;;6.40;6.00;;;;;16.64;37.45;99123.63;5047515;28;8843;-78
2022/05/03 01:10:37;;;;;;;;;6.00;5.00;;;;;16.58;37.62;99123.84;5030502;28;9705;-75
2022/05/03 01:13:19;;;;;;;;;7.00;5.00;;;;;16.57;37.99;99122.97;5030554;28;8860;-77
2022/05/03 01:15:55;;;;;;;;;6.80;6.80;;;;;16.53;38.03;99121.34;5014233;28;8823;-75
2022/05/03 01:18:27;;;;;;;;;8.60;7.40;;;;;16.46;38.47;99117.16;4997534;28;9625;-75
2022/05/03 01:21:11;;;;;;;;;7.80;7.00;;;;;16.43;38.66;99124.34;5046989;28;8832;-74
2022/05/03 01:24:00;;;;;;;;;5.80;5.40;;;;;16.32;39.13;99124.66;5030384;28;8859;-75
2022/05/03 01:27:06;;;;;;;;;10.60;8.80;;;;;16.28;39.14;99117.78;5030065;28;8920;-75
2022/05/03 01:29:37;;;;;;;;;8.00;7.20;;;;;16.18;39.25;99112.78;5031308;28;8959;-74
2022/05/03 01:32:07;;;;;;;;;11.40;8.60;;;;;16.25;38.99;99113.44;5049178;28;8863;-74
2022/05/03 01:34:38;;;;;;;;;6.00;6.00;;;;;16.21;39.15;99114.44;5047755;28;8853;-75
2022/05/03 01:37:26;;;;;;;;;9.00;7.80;;;;;16.19;39.18;99116.25;5049631;28;8847;-76
2022/05/03 01:40:04;;;;;;;;;7.00;6.20;;;;;16.20;39.14;99117.13;5048259;28;8889;-77
2022/05/03 01:42:54;;;;;;;;;7.00;7.00;;;;;16.16;39.31;99116.34;5030789;28;9493;-74
2022/05/03 01:45:30;;;;;;;;;7.00;7.00;;;;;16.15;39.29;99110.22;5049604;28;8866;-74
2022/05/03 01:48:17;;;;;;;;;7.40;7.40;;;;;16.12;39.84;99102.47;5049593;28;8858;-77
2022/05/03 01:50:53;;;;;;;;;7.60;7.40;;;;;16.04;39.72;99109.69;5030484;28;8866;-76
2022/05/03 01:53:30;;;;;;;;;7.40;7.40;;;;;16.01;39.78;99112.44;5071716;28;8891;-77
2022/05/03 01:56:26;;;;;;;;;7.60;6.60;;;;;16.01;39.78;99111.56;5022551;28;8848;-74
2022/05/03 01:59:05;;;;;;;;;9.60;7.00;;;;;15.98;39.77;99110.75;5070318;28;9636;-75
2022/05/03 02:01:54;;;;;;;;;7.40;7.00;;;;;15.99;39.59;99111.59;5027325;28;8985;-75
2022/05/03 02:04:44;;;;;;;;;7.80;7.80;;;;;15.93;39.72;99109.16;4994781;28;8847;-77
2022/05/03 02:07:25;;;;;;;;;6.40;6.20;;;;;15.92;39.61;99113.56;5010269;28;8942;-76
2022/05/03 02:10:08;;;;;;;;;7.00;7.00;;;;;15.94;39.59;99122.25;5010422;28;8846;-77
2022/05/03 02:12:37;;;;;;;;;7.60;7.60;;;;;15.94;39.90;99113.53;5010848;28;9001;-75
2022/05/03 02:15:07;;;;;;;;;6.60;6.40;;;;;15.93;40.00;99109.16;5010883;28;8854;-77
2022/05/03 02:17:52;;;;;;;;;10.20;7.20;;;;;16.01;39.62;99117.69;5010354;28;9048;-75
2022/05/03 02:20:47;;;;;;;;;12.20;9.20;;;;;15.97;39.80;99116.91;5026468;28;8862;-78
2022/05/03 02:23:21;;;;;;;;;8.20;7.00;;;;;15.92;40.15;99110.94;4967276;28;8905;-76
2022/05/03 02:26:24;;;;;;;;;8.80;8.60;;;;;15.96;39.97;99116.97;4952368;28;8968;-75
2022/05/03 02:28:57;;;;;;;;;7.80;7.20;;;;;15.88;39.93;99114.56;4910048;29;8866;-74
2022/05/03 02:31:33;;;;;;;;;10.00;10.00;;;;;15.88;39.87;99111.94;4909975;29;9692;-75
2022/05/03 02:34:14;;;;;;;;;11.00;8.20;;;;;15.91;40.22;99111.81;4910905;29;8874;-76
2022/05/03 02:36:53;;;;;;;;;7.20;6.80;;;;;15.96;39.54;99117.81;4913964;29;8866;-77
2022/05/03 02:39:27;;;;;;;;;9.40;9.40;;;;;16.01;39.97;99117.69;4915678;28;8877;-76
2022/05/03 02:41:59;;;;;;;;;6.00;6.00;;;;;16.00;39.97;99112.47;4932535;29;9112;-76
2022/05/03 02:44:30;;;;;;;;;10.60;8.40;;;;;16.01;40.17;99109.81;4949543;28;8966;-76
2022/05/03 02:47:05;;;;;;;;;8.20;8.20;;;;;16.04;40.07;99119.34;4967686;28;8841;-78
2022/05/03 02:49:56;;;;;;;;;11.20;8.40;;;;;16.05;39.81;99111.44;4967431;28;8852;-75
2022/05/03 02:52:32;;;;;;;;;10.20;7.60;;;;;16.07;39.65;99112.25;4968603;28;8844;-76
2022/05/03 02:55:09;;;;;;;;;6.00;6.00;;;;;16.08;39.93;99113.94;4999333;28;8949;-75
2022/05/03 02:57:48;;;;;;;;;7.80;7.80;;;;;16.02;39.83;99121.19;5006802;28;8824;-75
2022/05/03 03:03:42;;;;;;;;;7.00;7.00;;;;;16.00;39.54;99113.31;4990237;28;8881;-76
2022/05/03 03:06:21;;;;;;;;;9.60;7.80;;;;;16.06;39.78;99115.78;5000072;28;9614;-76
2022/05/03 03:08:53;;;;;;;;;7.40;7.00;;;;;16.02;39.63;99111.50;4989912;28;8921;-75
2022/05/03 03:11:32;;;;;;;;;9.20;8.00;;;;;16.00;39.81;99112.47;5015724;28;8873;-75
2022/05/03 03:14:09;;;;;;;;;7.60;7.60;;;;;16.06;39.47;99109.66;5029014;28;8847;-77
2022/05/03 03:16:44;;;;;;;;;8.00;6.80;;;;;16.05;39.58;99108.81;5046305;28;8992;-75
2022/05/03 03:19:33;;;;;;;;;7.20;6.20;;;;;16.02;39.57;99115.91;5015943;28;8852;-75
2022/05/03 03:22:03;;;;;;;;;44.00;38.75;;;;;16.05;39.47;99116.69;5049358;28;8920;-74
2022/05/03 03:24:35;;;;;;;;;12.20;11.60;;;;;16.02;39.57;99122.03;5049162;28;8909;-75
2022/05/03 03:27:06;;;;;;;;;9.80;9.80;;;;;15.92;39.96;99118.81;5049062;28;8870;-74
2022/05/03 03:29:38;;;;;;;;;9.00;7.60;;;;;15.89;39.96;99118.88;4983262;28;8856;-75
2022/05/03 03:32:08;;;;;;;;;7.60;7.60;;;;;15.86;40.00;99123.38;5016202;28;8851;-76
2022/05/03 03:34:37;;;;;;;;;8.00;7.00;;;;;15.88;39.81;99122.44;4999893;28;8860;-74
2022/05/03 03:37:08;;;;;;;;;6.00;6.00;;;;;15.85;39.92;99121.66;5015785;28;9651;-75
2022/05/03 03:39:37;;;;;;;;;5.00;5.00;;;;;15.84;39.91;99122.56;5032590;28;8998;-76
2022/05/03 03:42:07;;;;;;;;;9.20;8.80;;;;;15.87;40.06;99122.47;5052482;28;8848;-75
2022/05/03 03:44:36;;;;;;;;;7.00;7.00;;;;;15.91;39.75;99118.84;5053660;28;8939;-75
2022/05/03 03:47:05;;;;;;;;;10.80;7.60;;;;;15.89;40.05;99121.53;5053896;28;8866;-76
2022/05/03 03:49:40;;;;;;;;;8.60;8.60;;;;;15.95;40.04;99131.88;5071433;28;8864;-76
2022/05/03 03:52:11;;;;;;;;;7.60;7.60;;;;;15.99;39.91;99140.53;5069932;28;9014;-73
2022/05/03 03:54:41;;;;;;;;;8.20;8.20;;;;;16.00;40.35;99133.50;5069725;28;9019;-77
2022/05/03 03:57:10;;;;;;;;;8.20;7.00;;;;;16.00;40.49;99131.75;5071417;28;8874;-76
2022/05/03 03:59:38;;;;;;;;;7.20;7.20;;;;;16.03;40.66;99134.28;5069996;28;8863;-77
2022/05/03 04:02:07;;;;;;;;;8.60;8.60;;;;;15.99;40.44;99140.53;5053732;28;9005;-75
2022/05/03 04:04:38;;;;;;;;;7.80;7.20;;;;;16.06;40.31;99139.44;5065971;28;9623;-76
2022/05/03 04:07:06;;;;;;;;;25.25;24.25;;;;;16.05;40.55;99132.47;5050973;28;8948;-77
2022/05/03 04:09:36;;;;;;;;;8.60;8.60;;;;;16.01;40.53;99143.09;5031876;28;8892;-76
2022/05/03 04:12:06;;;;;;;;;8.80;8.80;;;;;16.03;40.78;99144.81;5049332;28;8846;-78
2022/05/03 04:14:35;;;;;;;;;9.80;9.80;;;;;16.12;40.68;99143.66;5050602;28;8850;-74
2022/05/03 04:17:04;;;;;;;;;6.20;6.20;;;;;16.15;40.80;99146.22;5050744;28;9693;-76
2022/05/03 04:19:35;;;;;;;;;7.00;6.40;;;;;16.19;40.63;99147.84;5050398;28;8866;-74
2022/05/03 04:22:13;;;;;;;;;12.40;9.80;;;;;16.23;40.77;99140.72;5050692;28;8854;-75
2022/05/03 04:24:44;;;;;;;;;7.60;7.60;;;;;16.27;40.52;99147.59;5051126;28;8961;-76
2022/05/03 04:27:13;;;;;;;;;25.00;22.20;;;;;16.30;40.68;99147.53;5066491;28;8949;-75
2022/05/03 04:29:41;;;;;;;;;8.00;8.00;;;;;16.28;41.07;99149.34;5049696;28;8934;-76
2022/05/03 04:32:10;;;;;;;;;9.00;7.80;;;;;16.34;40.80;99154.41;5050383;28;8881;-77
2022/05/03 04:34:38;;;;;;;;;9.40;7.80;;;;;16.34;40.41;99151.78;5050414;28;8885;-78
2022/05/03 04:37:07;;;;;;;;;9.20;9.20;;;;;16.39;40.74;99147.25;5050052;28;8851;-76
2022/05/03 04:39:36;;;;;;;;;12.80;11.80;;;;;16.43;40.63;99156.75;5050090;28;9573;-77
2022/05/03 04:42:07;;;;;;;;;11.00;8.00;;;;;16.45;40.39;99149.69;5050100;28;8859;-78
2022/05/03 04:44:36;;;;;;;;;8.20;8.20;;;;;16.53;40.68;99154.69;5050374;28;8847;-76
2022/05/03 04:47:05;;;;;;;;;10.20;8.80;;;;;16.53;41.06;99150.28;5050118;28;9616;-77
2022/05/03 04:49:34;;;;;;;;;8.60;7.80;;;;;16.63;40.68;99150.84;5049577;28;8866;-75
2022/05/03 04:52:03;;;;;;;;;7.00;7.00;;;;;16.61;40.59;99162.34;5048693;28;8850;-77
2022/05/03 04:54:32;;;;;;;;;11.60;9.40;;;;;16.68;40.72;99156.00;5047916;28;8884;-76
2022/05/03 04:57:03;;;;;;;;;9.20;7.20;;;;;16.70;41.03;99170.81;5048624;28;8850;-74
2022/05/03 04:59:34;;;;;;;;;10.80;10.20;;;;;16.75;41.05;99168.91;5048648;28;8847;-73
2022/05/03 05:02:03;;;;;;;;;8.40;8.00;;;;;16.87;40.83;99165.06;5048835;28;8874;-75
2022/05/03 05:04:31;;;;;;;;;12.20;8.40;;;;;16.95;41.12;99162.16;5014854;28;8854;-74
2022/05/03 05:07:00;;;;;;;;;11.60;9.20;;;;;16.98;40.45;99159.44;5046953;28;9763;-76
2022/05/03 05:09:28;;;;;;;;;10.40;8.00;;;;;17.06;40.55;99160.03;5014050;28;8838;-75
2022/05/03 05:11:57;;;;;;;;;9.40;9.40;;;;;17.02;40.55;99163.69;5046522;28;8862;-76
2022/05/03 05:14:25;;;;;;;;;9.60;9.20;;;;;17.15;40.22;99167.63;5046897;28;8858;-75
2022/05/03 05:16:57;;;;;;;;;11.40;10.00;;;;;17.02;40.35;99160.19;5046669;28;8869;-74
2022/05/03 05:19:26;;;;;;;;;10.80;8.40;;;;;16.99;40.67;99169.06;5031633;28;8884;-75
2022/05/03 05:21:54;;;;;;;;;12.40;10.60;;;;;16.97;40.89;99170.03;5032312;28;8858;-76
2022/05/03 05:24:23;;;;;;;;;13.80;13.20;;;;;16.95;40.81;99175.34;5046934;28;8842;-76
2022/05/03 05:26:52;;;;;;;;;11.60;10.80;;;;;17.10;40.46;99171.34;5030139;28;9024;-76
2022/05/03 05:29:21;;;;;;;;;15.60;13.60;;;;;17.00;41.52;99178.69;5037248;28;8846;-76
2022/05/03 05:31:50;;;;;;;;;9.80;6.60;;;;;17.04;40.97;99169.75;5030036;28;8873;-74
2022/05/03 05:34:20;;;;;;;;;14.40;14.20;;;;;17.09;40.97;99172.28;5030671;28;8889;-77
2022/05/03 05:36:49;;;;;;;;;13.20;10.80;;;;;17.08;41.38;99174.03;5021737;28;8958;-75
2022/05/03 05:39:17;;;;;;;;;13.80;13.60;;;;;17.07;41.38;99177.59;5049484;28;9718;-75
2022/05/03 05:41:55;;;;;;;;;12.40;12.40;;;;;17.09;41.54;99182.81;5033128;28;8874;-74
2022/05/03 05:44:24;;;;;;;;;11.00;11.00;;;;;17.14;41.09;99180.84;5052519;28;8843;-76
2022/05/03 05:46:53;;;;;;;;;10.80;10.80;;;;;17.13;41.37;99182.63;5047742;28;8835;-77
2022/05/03 05:49:23;;;;;;;;;9.00;9.00;;;;;17.28;41.08;99178.63;5047621;28;8854;-77
2022/05/03 05:53:31;;;;;;;;;10.40;10.40;;;;;17.13;42.04;99187.91;5047949;28;8865;-75
2022/05/03 05:54:39;;;;;;;;;11.60;9.60;;;;;17.30;41.38;99178.59;5031499;28;8963;-76
2022/05/03 05:57:08;;;;;;;;;13.60;13.60;;;;;17.49;41.33;99184.09;4998036;28;8850;-76
2022/05/03 05:59:36;;;;;;;;;10.20;10.20;;;;;17.57;40.99;99186.47;5048231;28;8835;-75
2022/05/03 06:02:05;;;;;;;;;10.40;10.40;;;;;17.66;41.14;99191.41;5061538;28;8905;-75
2022/05/03 06:04:35;;;;;;;;;15.80;13.00;;;;;17.68;40.97;99194.84;5049091;28;8976;-75
2022/05/03 06:07:04;;;;;;;;;14.20;13.00;;;;;17.57;41.48;99186.47;5064359;28;8953;-75
2022/05/03 06:09:34;;;;;;;;;14.80;12.60;;;;;17.70;41.75;99193.00;5048446;28;9069;-76
2022/05/03 06:12:03;;;;;;;;;13.60;13.00;;;;;17.76;41.94;99205.13;5046676;28;8854;-77
2022/05/03 06:14:32;;;;;;;;;14.20;11.80;;;;;17.75;41.93;99199.00;5063931;28;8969;-76
2022/05/03 06:17:01;;;;;;;;;12.80;11.20;;;;;17.89;42.24;99204.66;5017832;28;8860;-75
2022/05/03 06:19:29;;;;;;;;;15.00;14.20;;;;;18.04;42.09;99205.03;5016795;28;8852;-77
2022/05/03 06:22:00;;;;;;;;;11.80;11.80;;;;;18.04;41.42;99218.22;5068392;28;8975;-76
2022/05/03 06:24:28;;;;;;;;;14.00;12.20;;;;;18.10;41.53;99208.28;5067415;28;8852;-77
2022/05/03 06:26:58;;;;;;;;;11.80;11.80;;;;;17.93;41.53;99211.53;5067430;28;8831;-75
2022/05/03 06:29:27;;;;;;;;;9.60;9.60;;;;;18.04;41.67;99213.78;5067282;28;8844;-77
2022/05/03 06:31:55;;;;;;;;;13.40;13.20;;;;;18.07;41.62;99205.78;5067430;28;8840;-74
2022/05/03 06:34:24;;;;;;;;;10.60;10.60;;;;;18.20;41.53;99210.59;5016605;28;8829;-76
2022/05/03 06:36:53;;;;;;;;;11.00;10.00;;;;;18.37;40.97;99218.72;5033734;28;8840;-75
2022/05/03 06:39:22;;;;;;;;;11.60;10.40;;;;;18.49;41.49;99215.63;5068017;28;8848;-76
2022/05/03 06:41:51;;;;;;;;;12.20;12.20;;;;;18.70;40.44;99215.72;5068096;28;8840;-76
2022/05/03 06:44:20;;;;;;;;;11.20;11.00;;;;;18.77;39.88;99213.69;5068067;28;8851;-76
2022/05/03 06:46:49;;;;;;;;;9.80;9.40;;;;;18.78;40.34;99216.28;5068013;28;9007;-77
2022/05/03 06:49:17;;;;;;;;;13.00;12.20;;;;;18.74;40.45;99213.84;5066694;28;8844;-77
2022/05/03 06:51:46;;;;;;;;;10.80;10.80;;;;;18.65;40.31;99218.53;5068438;28;8901;-77
2022/05/03 06:54:14;;;;;;;;;10.80;10.60;;;;;18.81;39.41;99220.59;5072031;28;8847;-77
2022/05/03 06:56:44;;;;;;;;;11.20;10.00;;;;;18.77;39.01;99213.69;5071127;28;9590;-75
2022/05/03 06:59:13;;;;;;;;;7.80;7.20;;;;;18.86;38.31;99214.22;5070753;28;8920;-76
2022/05/03 07:01:41;;;;;;;;;10.20;9.20;;;;;18.94;38.73;99219.22;5051402;28;8855;-75
2022/05/03 07:04:13;;;;;;;;;10.60;10.20;;;;;19.17;38.73;99212.13;5057934;28;8839;-77
2022/05/03 07:06:41;;;;;;;;;12.80;12.80;;;;;19.27;39.02;99214.31;5061021;28;8871;-76
2022/05/03 07:09:10;;;;;;;;;12.00;12.00;;;;;19.19;37.93;99211.16;5055673;28;8846;-76
2022/05/03 07:11:39;;;;;;;;;10.00;10.00;;;;;19.33;37.91;99223.78;5050052;28;8846;-76
2022/05/03 07:14:09;;;;;;;;;11.00;10.60;;;;;19.31;37.94;99219.50;5016995;28;8869;-76
2022/05/03 07:16:38;;;;;;;;;10.20;10.20;;;;;19.49;38.28;99224.03;5052700;28;8891;-76
2022/05/03 07:24:39;;;;;;;;;13.80;12.80;;;;;19.65;37.85;99221.56;5051094;28;8862;-77
2022/05/03 07:27:07;;;;;;;;;10.00;9.60;;;;;19.87;37.76;99229.47;5058646;28;8839;-76
2022/05/03 07:29:37;;;;;;;;;12.80;11.80;;;;;20.12;36.87;99223.09;5051674;28;8877;-77
2022/05/03 07:32:07;;;;;;;;;12.20;12.20;;;;;20.26;36.40;99228.59;5049901;28;9576;-77
2022/05/03 07:34:35;;;;;;;;;12.00;10.60;;;;;20.31;36.23;99223.13;5050223;28;8866;-76
2022/05/03 07:37:04;;;;;;;;;14.00;12.40;;;;;20.51;35.87;99224.81;5067686;28;9674;-78
2022/05/03 07:39:34;;;;;;;;;11.20;10.60;;;;;20.70;35.84;99230.16;5072309;28;8856;-76
2022/05/03 07:42:02;;;;;;;;;12.60;12.00;;;;;20.76;35.57;99228.09;5037013;28;8994;-76
2022/05/03 07:44:31;;;;;;;;;10.40;9.60;;;;;20.86;35.58;99233.81;5071509;28;8828;-77
2022/05/03 07:47:02;;;;;;;;;11.20;10.60;;;;;20.99;35.51;99231.44;5071089;28;9010;-77
2022/05/03 07:49:31;;;;;;;;;10.40;10.40;;;;;20.97;34.95;99226.19;5071124;28;8930;-76
2022/05/03 07:51:59;;;;;;;;;12.20;11.60;;;;;20.94;35.84;99238.72;5078241;28;8852;-75
2022/05/03 07:54:28;;;;;;;;;10.20;10.20;;;;;;;;5087799;28;8848;-76
2022/05/03 07:56:56;;;;;;;;;11.20;10.40;;;;;21.11;34.95;99233.47;5082877;28;9624;-78
2022/05/03 07:59:25;;;;;;;;;13.20;12.20;;;;;21.22;35.02;99230.28;5088264;28;8879;-76
2022/05/03 08:01:54;;;;;;;;;11.00;10.60;;;;;21.29;35.16;99244.97;5065062;28;8866;-76
2022/05/03 08:04:25;;;;;;;;;9.60;9.60;;;;;21.44;34.31;99240.75;5036415;28;8839;-77
2022/05/03 08:06:53;;;;;;;;;11.40;11.40;;;;;21.57;34.48;99239.19;5050306;28;8927;-77
2022/05/03 08:09:22;;;;;;;;;12.00;12.00;;;;;21.75;34.27;99236.53;5032462;28;8854;-77
2022/05/03 08:11:52;;;;;;;;;11.60;11.00;;;;;21.52;33.89;99230.59;5050324;28;8913;-76
2022/05/03 08:14:21;;;;;;;;;12.00;12.00;;;;;21.70;33.92;99244.72;5033835;28;8973;-78
2022/05/03 08:16:50;;;;;;;;;12.20;12.20;;;;;21.88;33.76;99239.41;5050800;28;8906;-75
2022/05/03 08:19:19;;;;;;;;;9.80;9.80;;;;;21.98;33.36;99238.84;5065518;28;8846;-78
2022/05/03 08:21:49;;;;;;;;;12.40;11.40;;;;;21.88;33.37;99244.72;5032324;28;9581;-76
2022/05/03 08:24:17;;;;;;;;;11.80;8.00;;;;;22.01;33.43;99243.13;5050493;28;8846;-76
2022/05/03 08:26:46;;;;;;;;;14.00;12.20;;;;;22.06;32.88;99241.09;5051039;28;8850;-75
2022/05/03 08:29:15;;;;;;;;;9.60;9.00;;;;;22.12;32.34;99242.56;5049968;28;8878;-77
2022/05/03 08:31:44;;;;;;;;;13.60;12.00;;;;;22.07;32.91;99250.78;5049867;28;8973;-76
2022/05/03 08:34:13;;;;;;;;;10.00;9.40;;;;;22.08;32.74;99257.81;5051545;28;8858;-77
2022/05/03 08:42:01;;;;;;;;;11.40;11.00;;;;;22.17;32.93;99253.78;5031394;28;8854;-74
2022/05/03 08:42:18;;;;;;;;;10.20;9.00;;;;;22.34;33.54;99252.94;5033377;28;8847;-77
2022/05/03 08:44:47;;;;;;;;;14.00;14.00;;;;;22.32;33.17;99260.13;5049871;28;8923;-77
2022/05/03 08:47:19;;;;;;;;;13.80;13.20;;;;;22.35;33.14;99265.28;5050531;28;8862;-75
2022/05/03 08:49:57;;;;;;;;;13.80;12.20;;;;;22.30;33.21;99264.66;5050496;28;8834;-76
2022/05/03 08:52:28;;;;;;;;;12.80;12.80;;;;;22.41;33.35;99262.28;5013999;28;8905;-75
2022/05/03 08:54:58;;;;;;;;;14.20;12.80;;;;;22.43;33.12;99265.72;5065027;28;8858;-75
2022/05/03 08:57:28;;;;;;;;;13.40;13.40;;;;;22.34;33.24;99266.22;5050056;28;8858;-77
2022/05/03 08:59:58;;;;;;;;;9.80;9.60;;;;;22.41;33.04;99267.59;5049188;28;8858;-76
2022/05/03 09:02:26;;;;;;;;;13.00;11.60;;;;;22.29;32.48;99277.09;5048656;28;9038;-75
2022/05/03 09:04:55;;;;;;;;;9.40;9.40;;;;;22.49;33.01;99262.72;5050518;28;8855;-77
2022/05/03 09:07:25;;;;;;;;;11.20;11.20;;;;;22.43;32.91;99254.25;5049105;28;8831;-76
2022/05/03 09:09:55;;;;;;;;;13.20;11.60;;;;;22.46;32.90;99272.69;5049350;28;8858;-75
2022/05/03 09:12:28;;;;;;;;;10.00;10.00;;;;;22.43;32.99;99270.19;5052847;28;8852;-78
2022/05/03 09:14:57;;;;;;;;;9.60;9.60;;;;;22.37;33.61;99266.06;5051118;28;8832;-79
2022/05/03 09:17:38;;;;;;;;;13.80;12.00;;;;;22.31;33.18;99266.38;5068675;28;9541;-76
2022/05/03 09:25:51;;;;;;;;;13.80;12.60;;;;;22.10;34.38;99258.59;5068744;28;8852;-79
2022/05/03 09:28:24;;;;;;;;;12.60;11.40;;;;;22.28;34.09;99267.41;5068476;28;8825;-77
2022/05/03 09:30:53;;;;;;;;;40.25;36.00;;;;;22.39;33.73;99273.00;5068204;28;8860;-76
2022/05/03 09:33:23;;;;;;;;;15.00;15.00;;;;;22.51;33.31;99263.53;5068459;28;8952;-77
2022/05/03 09:35:52;;;;;;;;;13.20;11.80;;;;;22.56;32.93;99264.09;5018694;28;8881;-78
2022/05/03 09:38:21;;;;;;;;;12.40;10.20;;;;;22.46;33.17;99260.25;5068811;28;8966;-74
2022/05/03 09:40:51;;;;;;;;;13.00;12.00;;;;;22.40;33.35;99268.56;5068698;28;8906;-76
2022/05/03 09:43:21;;;;;;;;;12.00;11.20;;;;;22.43;32.53;99260.41;5033912;28;8867;-77
2022/05/03 09:46:04;;;;;;;;;12.40;12.40;;;;;22.32;31.88;99260.97;5069786;28;8867;-77
2022/05/03 09:48:52;;;;;;;;;13.40;12.00;;;;;22.46;32.31;99259.41;5068550;28;8840;-76
2022/05/03 09:51:20;;;;;;;;;16.00;13.80;;;;;22.59;32.63;99260.44;5068656;28;9722;-78
2022/05/03 09:53:56;;;;;;;;;12.20;12.20;;;;;22.50;33.31;99260.94;5069638;28;8879;-75
2022/05/03 09:56:27;;;;;;;;;12.00;12.00;;;;;22.46;33.56;99248.78;5054460;28;8970;-77
2022/05/03 09:59:05;;;;;;;;;12.60;12.60;;;;;22.46;33.57;99254.09;5049225;28;8843;-76
2022/05/03 10:01:35;;;;;;;;;15.60;15.20;;;;;22.46;33.72;99246.97;5048968;28;8850;-79
2022/05/03 10:04:06;;;;;;;;;12.20;11.80;;;;;22.55;33.49;99241.16;5048784;28;8851;-77
2022/05/03 10:06:35;;;;;;;;;11.80;9.80;;;;;22.48;34.07;99237.09;5049978;28;8989;-75
2022/05/03 10:09:05;;;;;;;;;9.60;9.60;;;;;22.44;32.81;99240.00;5046914;28;8901;-77
2022/05/03 10:11:35;;;;;;;;;11.60;10.80;;;;;22.48;33.03;99246.88;5048319;28;9084;-77
2022/05/03 10:14:05;;;;;;;;;14.00;12.60;;;;;22.57;32.97;99241.91;5063602;28;8846;-76
2022/05/03 10:22:10;;;;;;;;;13.20;13.20;;;;;22.51;33.54;99234.28;5064418;28;8868;-77
2022/05/03 10:24:55;;;;;;;;;12.20;12.20;;;;;22.64;32.57;99233.59;5048843;28;8858;-76
2022/05/03 10:27:25;;;;;;;;;12.00;11.00;;;;;22.85;32.89;99228.88;5055796;28;8871;-77
2022/05/03 10:30:18;;;;;;;;;11.40;10.80;;;;;22.86;31.25;99230.63;5054362;28;8870;-75
2022/05/03 10:33:28;;;;;;;;;10.00;9.40;;;;;22.88;30.09;99231.38;5055322;28;8931;-77
2022/05/03 10:35:58;;;;;;;;;11.40;9.80;;;;;22.91;31.19;99232.06;5014825;28;8847;-76
2022/05/03 10:38:37;;;;;;;;;10.00;9.80;;;;;22.88;31.08;99234.03;5014224;28;8903;-77
2022/05/03 10:41:08;;;;;;;;;12.60;11.40;;;;;22.95;30.64;99224.78;4996630;28;8970;-75
2022/05/03 10:43:38;;;;;;;;;7.40;7.40;;;;;23.04;31.18;99234.91;4997397;28;8825;-76
2022/05/03 10:46:12;;;;;;;;;8.00;8.00;;;;;23.13;30.17;99236.19;5012854;28;8867;-76
2022/05/03 10:48:43;;;;;;;;;9.60;9.00;;;;;23.25;29.10;99218.66;5012252;28;8873;-77
2022/05/03 10:51:14;;;;;;;;;8.80;8.80;;;;;23.42;29.00;99223.00;4997128;28;8852;-76
2022/05/03 10:53:43;;;;;;;;;10.00;9.00;;;;;23.20;28.41;99223.41;5016659;28;8860;-77
2022/05/03 10:56:22;;;;;;;;;6.40;6.40;;;;;23.31;28.25;99219.16;4985751;28;8933;-74
2022/05/03 10:59:14;;;;;;;;;8.00;7.80;;;;;23.44;28.08;99229.06;5014863;28;8856;-75
2022/05/03 11:02:09;;;;;;;;;9.20;8.00;;;;;23.49;28.49;99208.38;5012342;28;8882;-78
2022/05/03 11:05:16;;;;;;;;;10.20;10.20;;;;;23.47;27.70;99204.94;4939366;28;8850;-76
2022/05/03 11:08:14;;;;;;;;;11.80;10.00;;;;;23.64;27.87;99206.63;4886568;29;8874;-76
2022/05/03 11:10:45;;;;;;;;;8.20;8.20;;;;;23.78;28.10;99203.09;4917712;29;8847;-76
2022/05/03 11:13:36;;;;;;;;;10.20;9.40;;;;;23.98;27.07;99210.78;4922410;28;8858;-77
2022/05/03 11:16:27;;;;;;;;;9.00;8.20;;;;;24.09;27.12;99197.66;4956630;28;8847;-76
2022/05/03 11:18:56;;;;;;;;;10.00;10.00;;;;;24.12;26.44;99208.13;4878612;29;9036;-77
2022/05/03 11:21:25;;;;;;;;;8.60;8.60;;;;;24.19;26.78;99208.59;4878182;29;8889;-78
2022/05/03 11:23:55;;;;;;;;;9.40;9.00;;;;;24.09;25.60;99205.66;4878626;29;8985;-76
2022/05/03 11:26:26;;;;;;;;;7.00;6.80;;;;;24.20;26.53;99191.66;4863803;29;9112;-78
2022/05/03 11:29:00;;;;;;;;;8.40;8.40;;;;;24.12;25.66;99194.81;4862999;29;8877;-76
2022/05/03 11:31:29;;;;;;;;;8.80;7.80;;;;;24.16;25.10;99200.81;4878927;29;8886;-78
2022/05/03 11:34:00;;;;;;;;;6.80;6.80;;;;;24.22;24.92;99207.56;4884336;29;8969;-78
2022/05/03 11:36:30;;;;;;;;;8.00;7.00;;;;;24.18;24.05;99203.34;4898783;29;8860;-77
2022/05/03 11:38:58;;;;;;;;;8.00;6.40;;;;;24.30;23.41;99207.94;4878811;29;8914;-76
2022/05/03 11:41:29;;;;;;;;;6.20;6.20;;;;;24.31;24.53;99197.19;4935866;28;9017;-77
2022/05/03 11:43:58;;;;;;;;;7.20;7.20;;;;;24.28;24.18;99194.69;4973247;28;9730;-76
2022/05/03 11:46:26;;;;;;;;;7.80;7.80;;;;;24.46;24.61;99205.13;4989830;28;8992;-77
2022/05/03 11:48:59;;;;;;;;;5.80;5.80;;;;;24.74;24.39;99204.25;4972857;28;8874;-76
2022/05/03 11:57:07;;;;;;;;;7.20;7.20;;;;;24.64;23.59;99206.69;5023982;28;8977;-78
2022/05/03 11:59:36;;;;;;;;;7.40;7.40;;;;;24.69;23.06;99198.41;5011617;28;8882;-79
2022/05/03 12:02:15;;;;;;;;;7.00;6.40;;;;;24.77;23.41;99211.22;5028377;28;9038;-75
2022/05/03 12:05:03;;;;;;;;;7.00;7.00;;;;;24.72;23.20;99200.84;5028277;28;8894;-77
2022/05/03 12:07:37;;;;;;;;;6.00;6.00;;;;;24.83;23.39;99201.00;4972824;28;8865;-77
2022/05/03 12:10:15;;;;;;;;;5.80;5.80;;;;;25.08;23.03;99199.41;4956247;28;8883;-75
2022/05/03 12:12:44;;;;;;;;;9.60;8.60;;;;;25.51;23.05;99193.88;4972459;28;8856;-76
2022/05/03 12:15:30;;;;;;;;;9.20;7.40;;;;;25.75;23.32;99199.38;4988160;28;8841;-76
2022/05/03 12:18:01;;;;;;;;;7.20;7.20;;;;;25.77;22.20;99193.94;4956125;28;8865;-77
2022/05/03 12:20:42;;;;;;;;;8.60;7.00;;;;;25.94;21.60;99190.13;4988801;28;8844;-77
2022/05/03 12:23:23;;;;;;;;;5.80;5.80;;;;;25.85;20.85;99194.25;4956317;28;8958;-76
2022/05/03 12:25:55;;;;;;;;;4.40;4.00;;;;;25.77;19.08;99192.09;4988007;28;8833;-75
2022/05/03 12:28:36;;;;;;;;;4.80;4.80;;;;;25.92;18.92;99192.00;4940511;28;8876;-78
2022/05/03 12:31:06;;;;;;;;;7.00;7.00;;;;;26.33;19.62;99191.75;4988199;28;8968;-77